Centre Village, New York
Current Conditions -  °F | °C
As of 4:53 PM on Wednesday 28 Jan 2015 (Local Time) from KBGM Reporting Station
Clear Clear  
Wind Chill:   Ceiling: Unl
Heat Index: 19°   Visibility: 10mi
Dew Point:   Wind: 13mph
Humidity: 47%   Direction: 330°NNW
Pressure: 30.15"   Gusts: NA
Location:  42.1976°N, 75.6682°W
Report Text: KBGM 282153Z 33011KT 10SM CLR M07/M17 A3015 RMK AO2 SLP243 T10721167
Loading
Personal Weather Stations






























Interactive Weather Map New forecast layout! Learn more

10-Day Weather Forecast

Advertisements
Track Severe Weather on mobile